EJU43TE LEBL-LSGG
Flight info
| Callsign | EJU43TE |
|---|---|
| Flight time | N/A |
| Altitude | 34000 |
| Route | DALIN DCT PIVUS DCT DIBER DCT ADITA DCT MAXIR DCT LUSOL DCT BODRU DCT OKTET DCT IRMAR DCT KINES |
| Aircraft | A20N/M-SDE2E3FGHIRWXY/LB1 |
Departure
| Time | 2026-05-05 17:12 |
|---|---|
| Airport | Josep Tarradellas Barcelona-El Prat Airport (LEBL) |
Arrival
| Time | N/A |
|---|---|
| Airport | Geneva International Airport (LSGG) |
| Time | Latitude | Longitude | Altitude | Speed | Heading |
|---|---|---|---|---|---|
| 2026-05-05 16:42 | 41.30489 | 2.08379 | 21 ft | 0 kts | 245° |
| 2026-05-05 17:02 | 41.30492 | 2.08389 | 21 ft | 1 kts | 245° |
| 2026-05-05 17:02 | 41.30495 | 2.08398 | 21 ft | 2 kts | 245° |
| 2026-05-05 17:02 | 41.30501 | 2.08416 | 23 ft | 2 kts | 245° |
| 2026-05-05 17:03 | 41.30509 | 2.08433 | 22 ft | 2 kts | 220° |
| 2026-05-05 17:03 | 41.30521 | 2.08444 | 23 ft | 2 kts | 189° |
| 2026-05-05 17:03 | 41.30526 | 2.08445 | 23 ft | 0 kts | 168° |
| 2026-05-05 17:06 | 41.30501 | 2.08455 | 21 ft | 8 kts | 156° |
| 2026-05-05 17:06 | 41.30442 | 2.08531 | 21 ft | 15 kts | 144° |
| 2026-05-05 17:06 | 41.30334 | 2.08595 | 18 ft | 13 kts | 157° |
| 2026-05-05 17:07 | 41.30272 | 2.08558 | 17 ft | 12 kts | 240° |
| 2026-05-05 17:07 | 41.30217 | 2.08488 | 18 ft | 11 kts | 181° |
| 2026-05-05 17:07 | 41.30157 | 2.08433 | 19 ft | 15 kts | 251° |
| 2026-05-05 17:07 | 41.30109 | 2.08293 | 21 ft | 19 kts | 247° |
| 2026-05-05 17:08 | 41.30021 | 2.08276 | 18 ft | 14 kts | 156° |
| 2026-05-05 17:08 | 41.29930 | 2.08329 | 23 ft | 14 kts | 156° |
| 2026-05-05 17:08 | 41.29837 | 2.08385 | 23 ft | 19 kts | 155° |
| 2026-05-05 17:08 | 41.29668 | 2.08487 | 16 ft | 34 kts | 156° |
| 2026-05-05 17:09 | 41.29426 | 2.08634 | 15 ft | 40 kts | 156° |
| 2026-05-05 17:09 | 41.29177 | 2.08783 | 16 ft | 38 kts | 156° |
| 2026-05-05 17:09 | 41.28999 | 2.08891 | 15 ft | 11 kts | 155° |
| 2026-05-05 17:09 | 41.28947 | 2.08958 | 16 ft | 11 kts | 100° |
| 2026-05-05 17:10 | 41.28987 | 2.09102 | 16 ft | 21 kts | 78° |
| 2026-05-05 17:10 | 41.29052 | 2.09285 | 18 ft | 23 kts | 65° |
| 2026-05-05 17:10 | 41.29127 | 2.09494 | 16 ft | 29 kts | 64° |
| 2026-05-05 17:10 | 41.29228 | 2.09798 | 16 ft | 43 kts | 68° |
| 2026-05-05 17:11 | 41.29281 | 2.10000 | 16 ft | 21 kts | 94° |
| 2026-05-05 17:11 | 41.29251 | 2.10242 | 15 ft | 13 kts | 78° |
| 2026-05-05 17:11 | 41.29196 | 2.10267 | 16 ft | 17 kts | 230° |
| 2026-05-05 17:11 | 41.29174 | 2.10189 | 17 ft | 4 kts | 246° |
| 2026-05-05 17:12 | 41.29069 | 2.09887 | 21 ft | 72 kts | 245° |
| 2026-05-05 17:12 | 41.28772 | 2.09027 | 18 ft | 130 kts | 245° |
| 2026-05-05 17:12 | 41.28358 | 2.07811 | 319 ft | 148 kts | 243° |
| 2026-05-05 17:12 | 41.27820 | 2.06665 | 897 ft | 148 kts | 229° |
| 2026-05-05 17:13 | 41.26971 | 2.05925 | 1484 ft | 149 kts | 197° |
| 2026-05-05 17:13 | 41.25910 | 2.05634 | 1886 ft | 169 kts | 188° |
| 2026-05-05 17:13 | 41.24665 | 2.05672 | 2230 ft | 189 kts | 176° |
| 2026-05-05 17:13 | 41.23305 | 2.05853 | 2648 ft | 207 kts | 177° |
| 2026-05-05 17:14 | 41.21832 | 2.05941 | 3377 ft | 213 kts | 181° |
| 2026-05-05 17:14 | 41.20355 | 2.05915 | 4387 ft | 212 kts | 184° |
| 2026-05-05 17:14 | 41.18869 | 2.05820 | 5382 ft | 215 kts | 186° |
| 2026-05-05 17:14 | 41.17370 | 2.05690 | 6384 ft | 218 kts | 187° |
| 2026-05-05 17:15 | 41.15799 | 2.05576 | 7105 ft | 235 kts | 186° |
| 2026-05-05 17:15 | 41.14145 | 2.05499 | 8024 ft | 239 kts | 185° |
| 2026-05-05 17:15 | 41.12475 | 2.05435 | 9081 ft | 241 kts | 186° |
| 2026-05-05 17:15 | 41.10790 | 2.05367 | 10068 ft | 244 kts | 186° |
| 2026-05-05 17:16 | 41.09079 | 2.05291 | 11034 ft | 248 kts | 186° |
| 2026-05-05 17:16 | 41.06214 | 2.05158 | 12657 ft | 250 kts | 186° |
| 2026-05-05 17:16 | 41.02687 | 2.04992 | 14371 ft | 257 kts | 185° |
| 2026-05-05 17:16 | 40.99342 | 2.06763 | 15846 ft | 288 kts | 138° |
| 2026-05-05 17:17 | 40.97560 | 2.11863 | 16907 ft | 329 kts | 113° |
| 2026-05-05 17:17 | 40.96054 | 2.18051 | 17357 ft | 374 kts | 112° |
| 2026-05-05 17:17 | 40.94797 | 2.25048 | 18132 ft | 411 kts | 92° |
| 2026-05-05 17:17 | 40.96481 | 2.32340 | 19349 ft | 427 kts | 56° |
| 2026-05-05 17:18 | 41.00612 | 2.37883 | 20525 ft | 436 kts | 39° |
| 2026-05-05 17:18 | 41.05183 | 2.43287 | 21720 ft | 446 kts | 42° |
| 2026-05-05 17:18 | 41.08417 | 2.47457 | 22553 ft | 454 kts | 44° |
| 2026-05-05 17:18 | 41.10658 | 2.50442 | 23142 ft | 459 kts | 44° |
| 2026-05-05 17:19 | 41.12871 | 2.53414 | 23655 ft | 463 kts | 44° |
| 2026-05-05 17:19 | 41.15179 | 2.56523 | 24184 ft | 467 kts | 44° |
| 2026-05-05 17:19 | 41.21880 | 2.65552 | 25593 ft | 477 kts | 44° |
| 2026-05-05 17:19 | 41.26575 | 2.71890 | 26541 ft | 484 kts | 44° |
| 2026-05-05 17:20 | 41.31266 | 2.78231 | 27409 ft | 491 kts | 44° |
| 2026-05-05 17:20 | 41.36203 | 2.84590 | 28241 ft | 497 kts | 42° |
| 2026-05-05 17:20 | 41.41279 | 2.90945 | 29003 ft | 504 kts | 42° |
| 2026-05-05 17:20 | 41.46342 | 2.97350 | 29742 ft | 510 kts | 43° |
| 2026-05-05 17:21 | 41.48131 | 2.99626 | 29999 ft | 512 kts | 43° |